Time;durP1;ratioP1;P1;durP2;ratioP2;P2;SDS_P1;SDS_P2;PMS_P1;PMS_P2;Temp;Humidity;BMP_temperature;BMP_pressure;BME280_temperature;BME280_humidity;BME280_pressure;Samples;Min_cycle;Max_cycle;Signal;HPM_P1;HPM_P2
2021/03/27 00:01:46;;;;;;;61.50;48.88;;;7.80;1.00;;;;;;5057122;28;20704;-77
2021/03/27 00:04:18;;;;;;;57.92;47.95;;;7.80;1.00;;;;;;5055650;28;20225;-80
2021/03/27 00:06:48;;;;;;;60.47;49.22;;;7.80;1.00;;;;;;5060435;28;20251;-77
2021/03/27 00:09:37;;;;;;;60.97;47.50;;;7.70;1.00;;;;;;5059702;28;20228;-77
2021/03/27 00:12:10;;;;;;;62.92;47.00;;;7.70;1.00;;;;;;5056624;28;20343;-78
2021/03/27 00:14:42;;;;;;;60.03;46.83;;;7.70;1.00;;;;;;5069691;28;20219;-78
2021/03/27 00:17:14;;;;;;;59.33;46.20;;;7.70;1.00;;;;;;5066376;28;20232;-77
2021/03/27 00:19:44;;;;;;;59.72;46.70;;;7.70;1.00;;;;;;5063584;28;20225;-78
2021/03/27 00:22:17;;;;;;;59.45;45.60;;;7.60;1.00;;;;;;5050951;28;20905;-78
2021/03/27 00:25:12;;;;;;;63.47;49.13;;;7.60;1.00;;;;;;5063971;28;20295;-77
2021/03/27 00:27:45;;;;;;;57.65;45.58;;;7.60;1.00;;;;;;5061493;28;20715;-77
2021/03/27 00:30:17;;;;;;;62.20;47.58;;;7.60;1.00;;;;;;5059831;28;20348;-78
2021/03/27 00:32:48;;;;;;;65.55;49.60;;;7.50;1.00;;;;;;5049733;28;20216;-78
2021/03/27 00:35:18;;;;;;;65.22;51.38;;;7.60;1.00;;;;;;5058648;28;20221;-77
2021/03/27 00:37:46;;;;;;;69.65;53.78;;;7.60;1.00;;;;;;5047842;28;20233;-76
2021/03/27 00:40:16;;;;;;;62.55;50.63;;;7.50;1.00;;;;;;5060125;28;20737;-77
2021/03/27 00:42:44;;;;;;;71.10;51.33;;;7.50;1.00;;;;;;5046760;28;24168;-77
2021/03/27 00:45:14;;;;;;;64.10;49.20;;;7.60;1.00;;;;;;5061129;28;20252;-77
2021/03/27 00:47:45;;;;;;;65.25;49.80;;;7.50;1.00;;;;;;5043844;28;20221;-76
2021/03/27 00:50:16;;;;;;;62.90;50.17;;;7.50;1.00;;;;;;5056280;28;20263;-76
2021/03/27 00:52:46;;;;;;;61.00;47.03;;;7.50;1.00;;;;;;5040070;28;20229;-76
2021/03/27 00:55:15;;;;;;;75.05;57.33;;;7.50;1.00;;;;;;5053308;28;20255;-77
2021/03/27 00:57:53;;;;;;;56.53;45.95;;;7.50;1.00;;;;;;5039618;28;20232;-75
2021/03/27 01:00:27;;;;;;;56.60;46.05;;;7.50;1.00;;;;;;5054015;28;20227;-76
2021/03/27 01:02:59;;;;;;;60.60;45.60;;;7.50;1.00;;;;;;5044519;28;20252;-76
2021/03/27 01:05:28;;;;;;;57.60;44.83;;;7.60;1.00;;;;;;5063000;28;20232;-77
2021/03/27 01:07:57;;;;;;;57.17;45.55;;;7.60;1.00;;;;;;5046861;28;21019;-78
2021/03/27 01:10:31;;;;;;;56.00;45.60;;;7.70;1.00;;;;;;5062269;28;20224;-76
2021/03/27 01:13:01;;;;;;;52.35;44.80;;;7.70;1.00;;;;;;5048653;28;20339;-75
2021/03/27 01:15:30;;;;;;;62.67;45.47;;;7.80;1.00;;;;;;5059069;28;20666;-75
2021/03/27 01:18:04;;;;;;;52.15;43.42;;;7.80;1.00;;;;;;5057653;28;20233;-76
2021/03/27 01:20:33;;;;;;;55.83;43.30;;;7.90;1.00;;;;;;5063598;28;20231;-75
2021/03/27 01:23:00;;;;;;;57.08;43.72;;;7.90;1.00;;;;;;5059228;28;20506;-77
2021/03/27 01:25:29;;;;;;;57.72;44.25;;;7.80;1.00;;;;;;5086111;28;20406;-75
2021/03/27 01:28:04;;;;;;;57.22;45.35;;;7.70;1.00;;;;;;5049023;28;20232;-76
2021/03/27 01:30:38;;;;;;;55.90;43.10;;;7.70;1.00;;;;;;5058576;28;20335;-77
2021/03/27 01:33:17;;;;;;;53.05;42.08;;;7.60;1.00;;;;;;5046588;28;20733;-74
2021/03/27 01:35:46;;;;;;;53.97;42.50;;;7.50;1.00;;;;;;5066046;28;20377;-78
2021/03/27 01:38:18;;;;;;;55.83;43.13;;;7.50;1.00;;;;;;5046098;28;20247;-78
2021/03/27 01:41:01;;;;;;;58.20;44.80;;;7.50;1.00;;;;;;5060640;28;20295;-78
2021/03/27 01:43:33;;;;;;;59.15;43.97;;;7.40;1.00;;;;;;5050672;28;20225;-79
2021/03/27 01:46:24;;;;;;;58.70;45.90;;;7.40;1.00;;;;;;5069947;28;20233;-77
2021/03/27 01:49:01;;;;;;;56.88;42.85;;;7.30;1.00;;;;;;5043790;28;20244;-78
2021/03/27 01:51:49;;;;;;;49.22;41.42;;;7.30;1.00;;;;;;5092662;28;20239;-79
2021/03/27 01:54:20;;;;;;;55.97;44.08;;;7.20;1.00;;;;;;5061889;28;20212;-77
2021/03/27 01:56:59;;;;;;;53.47;42.30;;;7.30;1.00;;;;;;5080602;28;20243;-74
2021/03/27 01:59:31;;;;;;;47.92;40.88;;;7.20;1.00;;;;;;5086831;28;20248;-76
2021/03/27 02:02:03;;;;;;;50.58;40.95;;;7.20;1.00;;;;;;5085093;28;20227;-74
2021/03/27 02:04:35;;;;;;;46.88;40.08;;;7.10;1.00;;;;;;5065705;28;20487;-76
2021/03/27 02:07:05;;;;;;;55.20;41.10;;;7.20;1.00;;;;;;5083430;28;20245;-75
2021/03/27 02:09:41;;;;;;;53.63;42.60;;;7.20;1.00;;;;;;5067462;28;20232;-76
2021/03/27 02:12:23;;;;;;;53.42;43.30;;;7.10;1.00;;;;;;5079810;28;20220;-73
2021/03/27 02:14:53;;;;;;;52.55;43.50;;;7.10;1.00;;;;;;5072412;28;20430;-74
2021/03/27 02:17:22;;;;;;;57.22;44.72;;;7.20;1.00;;;;;;5083361;28;20316;-75
2021/03/27 02:20:13;;;;;;;60.60;46.88;;;7.10;1.00;;;;;;5066752;28;20252;-75
2021/03/27 02:22:43;;;;;;;57.97;46.33;;;7.10;1.00;;;;;;5084065;28;20225;-74
2021/03/27 02:25:29;;;;;;;60.33;45.90;;;7.10;1.00;;;;;;5065748;28;20219;-74
2021/03/27 02:28:09;;;;;;;54.45;45.08;;;7.10;1.00;;;;;;5077357;28;20228;-75
2021/03/27 02:30:41;;;;;;;57.53;46.50;;;7.10;1.00;;;;;;5057055;28;20277;-76
2021/03/27 02:33:32;;;;;;;53.97;44.58;;;7.10;1.00;;;;;;5075785;28;20279;-75
2021/03/27 02:36:15;;;;;;;67.57;54.33;;;7.10;1.00;;;;;;5062968;28;20492;-74
2021/03/27 02:38:55;;;;;;;55.45;44.75;;;7.10;1.00;;;;;;5073829;28;20236;-75
2021/03/27 02:41:53;;;;;;;58.15;44.20;;;7.10;1.00;;;;;;5050487;28;20251;-76
2021/03/27 02:44:28;;;;;;;55.65;42.10;;;7.10;1.00;;;;;;5062419;28;21515;-76
2021/03/27 02:46:59;;;;;;;57.63;40.53;;;7.10;1.00;;;;;;5043473;28;20229;-76
2021/03/27 02:49:31;;;;;;;52.10;41.38;;;7.10;1.00;;;;;;5057080;28;20312;-74
2021/03/27 02:52:22;;;;;;;54.55;43.30;;;7.10;1.00;;;;;;5045486;28;20225;-76
2021/03/27 02:54:55;;;;;;;52.45;42.35;;;7.10;1.00;;;;;;5058152;28;20224;-75
2021/03/27 02:57:29;;;;;;;50.65;41.13;;;7.10;1.00;;;;;;5045519;28;20225;-77
2021/03/27 03:00:03;;;;;;;46.83;40.47;;;7.20;1.00;;;;;;5059152;28;20319;-77
2021/03/27 03:02:41;;;;;;;47.10;39.28;;;7.20;1.00;;;;;;5049280;28;20960;-75
2021/03/27 03:05:13;;;;;;;50.67;39.92;;;7.30;1.00;;;;;;5063903;28;20261;-73
2021/03/27 03:07:49;;;;;;;44.85;38.53;;;7.40;1.00;;;;;;5056494;28;21046;-77
2021/03/27 03:10:24;;;;;;;60.28;44.83;;;7.40;1.00;;;;;;5062253;28;21119;-77
2021/03/27 03:13:11;;;;;;;51.10;39.83;;;7.40;1.00;;;;;;5044718;28;20221;-78
2021/03/27 03:15:43;;;;;;;48.85;39.58;;;7.50;1.00;;;;;;5067952;28;20225;-78
2021/03/27 03:18:18;;;;;;;48.90;38.58;;;7.50;1.00;;;;;;5044338;28;20236;-77
2021/03/27 03:20:50;;;;;;;46.60;37.90;;;7.50;1.00;;;;;;5058519;28;20260;-78
2021/03/27 03:23:26;;;;;;;52.03;38.55;;;7.60;1.00;;;;;;5041918;28;20304;-78
2021/03/27 03:26:00;;;;;;;49.90;37.95;;;7.60;1.00;;;;;;5057838;28;20285;-78
2021/03/27 03:28:32;;;;;;;45.47;36.78;;;7.60;1.00;;;;;;5044741;28;20239;-78
2021/03/27 03:31:21;;;;;;;47.95;37.88;;;7.60;1.00;;;;;;5055900;28;20233;-78
2021/03/27 03:34:10;;;;;;;51.33;35.85;;;7.70;1.00;;;;;;5041709;28;20244;-78
2021/03/27 03:36:48;;;;;;;49.92;34.70;;;7.70;1.00;;;;;;5059346;28;20216;-79
2021/03/27 03:39:31;;;;;;;49.10;37.17;;;7.80;1.00;;;;;;5041765;28;20278;-75
2021/03/27 03:42:02;;;;;;;48.20;36.40;;;7.80;1.00;;;;;;5052002;28;20228;-76
2021/03/27 03:44:48;;;;;;;45.67;34.58;;;7.80;1.00;;;;;;5044604;28;21147;-77
2021/03/27 03:47:19;;;;;;;40.80;32.25;;;7.80;1.00;;;;;;5073550;28;20278;-77
2021/03/27 03:50:09;;;;;;;43.15;34.50;;;7.90;1.00;;;;;;5053704;28;20222;-78
2021/03/27 03:53:11;;;;;;;46.13;34.35;;;7.90;1.00;;;;;;5053976;28;21119;-78
2021/03/27 03:55:51;;;;;;;42.33;32.95;;;7.90;1.00;;;;;;5014989;28;20228;-78
2021/03/27 03:58:37;;;;;;;41.67;35.40;;;7.90;1.00;;;;;;5046994;28;20287;-78
2021/03/27 04:01:07;;;;;;;46.60;33.78;;;7.90;1.00;;;;;;5053402;28;20712;-78
2021/03/27 04:03:41;;;;;;;42.65;34.45;;;8.00;1.00;;;;;;5048265;28;20704;-77
2021/03/27 04:06:15;;;;;;;45.17;34.80;;;8.00;1.00;;;;;;5054281;28;20216;-78
2021/03/27 04:08:51;;;;;;;40.70;34.25;;;8.00;1.00;;;;;;5049188;28;21118;-78
2021/03/27 04:11:46;;;;;;;44.13;33.97;;;8.00;1.00;;;;;;5049689;28;20760;-78
2021/03/27 04:14:20;;;;;;;45.53;34.75;;;8.00;1.00;;;;;;5043629;28;21495;-78
2021/03/27 04:16:49;;;;;;;42.80;33.65;;;8.00;1.00;;;;;;5054969;28;22210;-77
2021/03/27 04:19:22;;;;;;;42.60;32.35;;;8.00;1.00;;;;;;5041216;28;20235;-77
2021/03/27 04:22:01;;;;;;;42.17;33.50;;;8.00;1.00;;;;;;5058289;28;20933;-77
2021/03/27 04:24:29;;;;;;;38.05;33.22;;;8.00;1.00;;;;;;5047505;28;20228;-78
2021/03/27 04:27:01;;;;;;;39.00;33.15;;;8.00;1.00;;;;;;5058996;28;20806;-78
2021/03/27 04:29:38;;;;;;;42.67;33.10;;;7.90;1.00;;;;;;5049041;28;20360;-78
2021/03/27 04:32:25;;;;;;;38.05;32.17;;;7.90;1.00;;;;;;5070370;28;20213;-78
2021/03/27 04:35:02;;;;;;;38.03;33.42;;;8.00;1.00;;;;;;5035286;28;20313;-77
2021/03/27 04:37:38;;;;;;;40.58;32.42;;;8.00;1.00;;;;;;5057882;28;20233;-79
2021/03/27 04:40:11;;;;;;;38.55;32.45;;;8.00;1.00;;;;;;5046384;28;20273;-78
2021/03/27 04:42:48;;;;;;;39.70;31.25;;;8.10;1.00;;;;;;5060737;28;21360;-77
2021/03/27 04:45:22;;;;;;;35.85;30.52;;;8.10;1.00;;;;;;5047297;28;20217;-78
2021/03/27 04:48:01;;;;;;;40.83;33.10;;;8.10;1.00;;;;;;5073389;28;20280;-75
2021/03/27 04:50:34;;;;;;;41.70;33.83;;;8.10;1.00;;;;;;5054483;28;20354;-79
2021/03/27 04:53:10;;;;;;;39.88;33.85;;;8.10;1.00;;;;;;5060725;28;20455;-79
2021/03/27 04:55:45;;;;;;;40.83;34.65;;;7.90;1.00;;;;;;5051844;28;20217;-78
2021/03/27 04:58:27;;;;;;;41.13;33.95;;;7.90;1.00;;;;;;5069145;28;20307;-78
2021/03/27 05:01:07;;;;;;;40.25;32.17;;;7.80;1.00;;;;;;5058345;28;20232;-79
2021/03/27 05:03:40;;;;;;;42.70;33.45;;;7.70;1.00;;;;;;5085678;28;20232;-79
2021/03/27 05:06:17;;;;;;;42.05;31.92;;;7.70;1.00;;;;;;5077884;28;20229;-77
2021/03/27 05:09:12;;;;;;;49.83;35.83;;;7.70;1.00;;;;;;5079179;28;21558;-77
2021/03/27 05:11:45;;;;;;;37.53;32.83;;;7.60;1.00;;;;;;5049985;28;20232;-78
2021/03/27 05:14:34;;;;;;;40.58;34.10;;;7.60;1.00;;;;;;5061987;28;20251;-77
2021/03/27 05:17:09;;;;;;;39.80;32.70;;;7.70;1.00;;;;;;5041664;28;20233;-78
2021/03/27 05:19:42;;;;;;;39.15;32.30;;;7.70;1.00;;;;;;5064729;28;20226;-78
2021/03/27 05:22:23;;;;;;;40.70;32.17;;;7.80;1.00;;;;;;5042677;28;20222;-78
2021/03/27 05:25:13;;;;;;;45.17;34.30;;;7.90;1.00;;;;;;5057125;28;20308;-78
2021/03/27 05:27:44;;;;;;;41.83;32.25;;;8.00;1.00;;;;;;5042330;28;20217;-78
2021/03/27 05:30:24;;;;;;;40.85;33.15;;;8.00;1.00;;;;;;5058361;28;20320;-79
2021/03/27 05:33:21;;;;;;;38.28;31.02;;;8.10;1.00;;;;;;5043863;28;20239;-78
2021/03/27 05:35:53;;;;;;;39.38;31.50;;;8.20;1.00;;;;;;5031601;28;20264;-78
2021/03/27 05:38:30;;;;;;;37.00;30.55;;;8.30;1.00;;;;;;5040754;28;20240;-79
2021/03/27 05:41:35;;;;;;;39.47;31.20;;;8.40;1.00;;;;;;5054923;28;20205;-78
2021/03/27 05:44:38;;;;;;;34.42;28.35;;;8.50;1.00;;;;;;5044140;28;20224;-78
2021/03/27 05:47:56;;;;;;;44.53;31.33;;;8.70;1.00;;;;;;5056358;28;20717;-77
2021/03/27 05:51:10;;;;;;;34.97;30.10;;;8.70;1.00;;;;;;5060781;28;20225;-79
2021/03/27 05:54:04;;;;;;;33.70;27.58;;;8.90;1.00;;;;;;5044351;28;20214;-78
2021/03/27 05:57:09;;;;;;;33.03;28.90;;;8.90;1.00;;;;;;5053725;28;20287;-77
2021/03/27 06:00:17;;;;;;;36.63;29.50;;;9.00;1.00;;;;;;5059834;28;20256;-77
2021/03/27 06:03:10;;;;;;;36.10;27.92;;;9.10;1.00;;;;;;5050146;28;20363;-78
2021/03/27 06:05:58;;;;;;;30.20;26.80;;;9.30;1.00;;;;;;5075042;28;20249;-78
2021/03/27 06:08:46;;;;;;;29.27;26.08;;;9.40;1.00;;;;;;5046975;28;20265;-79
2021/03/27 06:11:38;;;;;;;29.70;26.40;;;9.50;1.00;;;;;;5057707;28;20249;-79
2021/03/27 06:14:34;;;;;;;33.63;27.25;;;9.50;1.00;;;;;;5035991;28;20233;-79
2021/03/27 06:17:19;;;;;;;40.17;28.67;;;9.50;1.00;;;;;;5061424;28;20327;-78
2021/03/27 06:20:16;;;;;;;28.88;25.00;;;9.50;1.00;;;;;;5050204;28;20813;-78
2021/03/27 06:23:01;;;;;;;31.95;25.67;;;9.50;1.00;;;;;;5072027;28;20224;-78
2021/03/27 06:25:46;;;;;;;29.17;24.42;;;9.50;1.00;;;;;;5048314;28;20221;-79
2021/03/27 06:28:42;;;;;;;32.20;27.45;;;9.40;1.00;;;;;;5067851;28;20238;-78
2021/03/27 06:31:50;;;;;;;28.85;24.83;;;9.40;1.00;;;;;;5046043;28;20284;-78
2021/03/27 06:34:41;;;;;;;28.35;24.83;;;9.40;1.00;;;;;;5053026;28;20713;-78
2021/03/27 06:37:26;;;;;;;29.00;24.95;;;9.50;1.00;;;;;;5066545;28;20253;-78
2021/03/27 06:40:33;;;;;;;29.48;24.45;;;9.50;1.00;;;;;;5058375;28;20214;-77
2021/03/27 06:43:57;;;;;;;28.95;23.75;;;9.50;1.00;;;;;;5066307;28;20218;-74
2021/03/27 06:46:54;;;;;;;28.58;22.20;;;9.60;1.00;;;;;;5053680;28;20261;-73
2021/03/27 06:49:42;;;;;;;27.95;23.38;;;9.80;1.00;;;;;;5071111;28;20222;-76
2021/03/27 06:52:34;;;;;;;25.90;22.00;;;10.00;1.00;;;;;;5058552;28;20230;-77
2021/03/27 06:55:36;;;;;;;24.55;21.60;;;10.30;1.00;;;;;;5066722;28;20230;-75
2021/03/27 06:58:32;;;;;;;23.10;20.73;;;10.50;1.00;;;;;;5069811;28;20235;-75
2021/03/27 07:01:19;;;;;;;23.40;19.80;;;10.70;1.00;;;;;;5052609;28;20224;-76
2021/03/27 07:04:25;;;;;;;29.60;21.00;;;10.80;1.00;;;;;;5065798;28;21220;-76
2021/03/27 07:07:07;;;;;;;25.70;20.10;;;10.90;1.00;;;;;;5034509;28;20525;-74
2021/03/27 07:10:22;;;;;;;23.80;19.20;;;11.00;1.00;;;;;;5062105;28;20454;-77
2021/03/27 07:13:29;;;;;;;24.77;20.60;;;11.00;1.00;;;;;;5048242;28;21774;-75
2021/03/27 07:16:06;;;;;;;22.17;19.17;;;11.20;1.00;;;;;;5050802;28;20982;-77
2021/03/27 07:18:49;;;;;;;21.47;19.27;;;11.30;1.00;;;;;;5059911;28;20562;-76
2021/03/27 07:21:52;;;;;;;21.03;17.80;;;11.30;1.00;;;;;;5045500;28;20486;-76
2021/03/27 07:24:52;;;;;;;20.27;18.10;;;11.20;1.00;;;;;;5063762;28;20564;-76
2021/03/27 07:28:01;;;;;;;21.48;19.17;;;11.00;1.00;;;;;;5047382;28;20452;-76
2021/03/27 07:30:45;;;;;;;20.75;17.52;;;10.70;1.00;;;;;;5058413;28;20231;-76
2021/03/27 07:33:37;;;;;;;20.90;18.63;;;10.40;1.00;;;;;;5051352;28;20234;-76
2021/03/27 07:36:47;;;;;;;23.02;17.73;;;10.00;1.00;;;;;;5066279;28;20250;-73
2021/03/27 07:39:38;;;;;;;22.23;17.88;;;9.80;1.00;;;;;;5067009;28;20273;-72
2021/03/27 07:42:38;;;;;;;19.52;17.42;;;9.70;1.00;;;;;;5050218;28;20280;-71
2021/03/27 07:45:18;;;;;;;21.30;17.15;;;9.50;1.00;;;;;;5055203;28;20239;-72
2021/03/27 07:48:14;;;;;;;20.33;17.13;;;9.40;1.00;;;;;;5039121;28;20223;-72
2021/03/27 07:50:54;;;;;;;20.23;18.10;;;9.30;1.00;;;;;;5050322;28;20220;-73
2021/03/27 07:54:00;;;;;;;19.73;15.50;;;9.30;1.00;;;;;;5046493;28;20229;-79
2021/03/27 07:56:50;;;;;;;19.23;17.13;;;9.30;1.00;;;;;;5074424;28;20217;-79
2021/03/27 07:59:52;;;;;;;17.73;15.82;;;9.30;1.00;;;;;;5066140;28;20237;-79
2021/03/27 08:02:44;;;;;;;17.63;15.18;;;9.20;1.00;;;;;;5070708;28;20232;-80
2021/03/27 08:05:46;;;;;;;20.92;17.42;;;9.20;1.00;;;;;;5094532;28;20241;-79
2021/03/27 08:08:41;;;;;;;22.55;17.17;;;9.20;1.00;;;;;;5061319;28;21295;-79
2021/03/27 08:11:20;;;;;;;27.77;17.55;;;9.10;1.00;;;;;;5082686;28;20222;-78
2021/03/27 08:14:07;;;;;;;24.67;18.80;;;9.10;1.00;;;;;;5070421;28;21365;-79
2021/03/27 08:16:45;;;;;;;21.08;18.05;;;9.10;1.00;;;;;;5073196;28;20294;-79
2021/03/27 08:19:45;;;;;;;13.27;9.80;;;9.10;1.00;;;;;;5065518;28;20326;-78
2021/03/27 08:22:28;;;;;;;11.30;8.88;;;8.80;1.00;;;;;;5078739;28;20212;-78
2021/03/27 08:24:58;;;;;;;8.15;6.20;;;8.60;1.00;;;;;;5070585;28;20224;-78
2021/03/27 08:27:49;;;;;;;6.57;4.03;;;8.40;1.00;;;;;;5077024;28;20222;-79
2021/03/27 08:31:04;;;;;;;3.67;2.30;;;8.20;1.00;;;;;;5067005;28;20228;-78
2021/03/27 08:34:08;;;;;;;4.03;2.25;;;7.90;1.00;;;;;;5079441;28;21041;-77
2021/03/27 08:37:13;;;;;;;1.60;1.20;;;7.70;1.00;;;;;;5071381;28;20328;-77
2021/03/27 08:40:23;;;;;;;1.65;1.17;;;7.60;1.00;;;;;;5065231;28;20296;-76
2021/03/27 08:43:36;;;;;;;1.88;1.30;;;7.50;1.00;;;;;;5073794;28;20445;-78
2021/03/27 08:46:59;;;;;;;3.10;1.23;;;7.50;1.00;;;;;;5063003;28;20396;-78
2021/03/27 08:50:19;;;;;;;1.13;0.82;;;7.50;1.00;;;;;;5033329;28;20239;-77
2021/03/27 08:53:14;;;;;;;1.50;0.95;;;7.30;1.00;;;;;;5019121;28;20226;-77
2021/03/27 08:56:06;;;;;;;2.30;0.90;;;7.20;1.00;;;;;;5058948;28;20217;-78
2021/03/27 08:58:54;;;;;;;1.90;1.20;;;7.10;1.00;;;;;;5076024;28;20436;-76
2021/03/27 09:02:00;;;;;;;1.67;1.20;;;7.00;1.00;;;;;;5057943;28;20295;-78
2021/03/27 09:04:41;;;;;;;1.45;1.08;;;7.00;1.00;;;;;;5077448;28;20274;-77
2021/03/27 09:07:40;;;;;;;2.85;1.30;;;6.90;1.00;;;;;;5064524;28;20245;-75
2021/03/27 09:10:41;;;;;;;1.70;1.50;;;6.80;1.00;;;;;;5067430;28;20229;-76
2021/03/27 09:13:41;;;;;;;2.03;1.83;;;6.70;1.00;;;;;;5068038;28;20299;-77
2021/03/27 09:16:58;;;;;;;2.40;2.00;;;6.70;1.00;;;;;;5061093;28;20239;-77
2021/03/27 09:20:02;;;;;;;2.47;2.22;;;6.70;1.00;;;;;;4962549;28;21726;-77
2021/03/27 09:22:50;;;;;;;2.13;1.70;;;6.70;1.00;;;;;;5053964;28;20244;-78
2021/03/27 09:25:30;;;;;;;2.70;2.05;;;6.60;1.00;;;;;;5060692;28;20417;-79
2021/03/27 09:28:26;;;;;;;2.35;2.00;;;6.60;1.00;;;;;;5049888;28;20456;-77
2021/03/27 09:31:14;;;;;;;3.20;2.58;;;6.60;1.00;;;;;;5059237;28;20265;-78
2021/03/27 09:33:46;;;;;;;2.70;2.50;;;6.50;1.00;;;;;;5065423;28;20248;-76
2021/03/27 09:36:23;;;;;;;2.40;2.15;;;6.60;1.00;;;;;;5067597;28;20419;-77
2021/03/27 09:39:04;;;;;;;4.45;2.28;;;6.70;1.00;;;;;;5066671;28;20285;-78
2021/03/27 09:41:54;;;;;;;3.38;2.72;;;6.80;1.00;;;;;;5051872;28;20230;-78
2021/03/27 09:44:53;;;;;;;2.58;2.10;;;6.80;1.00;;;;;;5049638;28;20322;-78
2021/03/27 09:47:45;;;;;;;9.30;2.47;;;6.90;1.00;;;;;;5038591;28;20229;-75
2021/03/27 09:50:18;;;;;;;2.63;2.35;;;6.90;1.00;;;;;;5070142;28;20804;-75
2021/03/27 09:52:59;;;;;;;2.72;2.38;;;7.00;1.00;;;;;;5066271;28;20228;-78
2021/03/27 09:55:46;;;;;;;2.50;2.30;;;7.10;1.00;;;;;;5080532;28;20232;-77
2021/03/27 09:58:19;;;;;;;3.13;2.45;;;7.40;1.00;;;;;;5066647;28;20236;-78
2021/03/27 10:01:16;;;;;;;5.10;2.45;;;7.70;1.00;;;;;;5080784;28;20850;-80
2021/03/27 10:03:51;;;;;;;3.63;2.83;;;8.00;1.00;;;;;;5061455;28;20256;-77
2021/03/27 10:06:44;;;;;;;3.15;2.75;;;7.80;1.00;;;;;;5072045;28;20214;-81
2021/03/27 10:09:26;;;;;;;3.15;2.67;;;7.80;1.00;;;;;;5065251;28;20229;-80
2021/03/27 10:11:59;;;;;;;2.83;2.50;;;7.70;1.00;;;;;;5072679;28;20299;-82
2021/03/27 10:14:29;;;;;;;3.55;3.25;;;7.70;1.00;;;;;;5068049;28;20225;-80
2021/03/27 10:17:00;;;;;;;3.80;3.38;;;7.70;1.00;;;;;;5072730;28;20226;-80
2021/03/27 10:19:33;;;;;;;3.13;2.83;;;7.80;1.00;;;;;;5075037;28;20254;-82
2021/03/27 10:22:16;;;;;;;4.78;4.22;;;7.90;1.00;;;;;;5086708;28;20287;-80
2021/03/27 10:24:46;;;;;;;3.90;3.50;;;8.00;1.00;;;;;;5079210;28;20217;-78
2021/03/27 10:27:19;;;;;;;5.35;3.72;;;8.00;1.00;;;;;;5088897;28;20212;-78
2021/03/27 10:29:58;;;;;;;4.40;4.00;;;8.10;1.00;;;;;;5080847;28;20247;-79
2021/03/27 10:33:01;;;;;;;3.45;3.15;;;8.20;1.00;;;;;;5089388;28;20221;-79
2021/03/27 10:36:04;;;;;;;3.42;2.92;;;8.30;1.00;;;;;;5097575;27;20276;-80
2021/03/27 10:38:51;;;;;;;4.43;3.58;;;8.20;1.00;;;;;;5081860;28;20244;-79
2021/03/27 10:41:25;;;;;;;4.85;4.35;;;8.20;1.00;;;;;;5076827;28;20317;-79
2021/03/27 10:44:01;;;;;;;6.60;4.85;;;8.40;1.00;;;;;;5072597;28;20212;-80
2021/03/27 10:46:36;;;;;;;4.50;4.10;;;9.10;1.00;;;;;;5067051;28;20267;-79
2021/03/27 10:49:27;;;;;;;6.28;3.88;;;10.80;1.00;;;;;;5069985;28;20228;-80
2021/03/27 10:52:25;;;;;;;4.40;3.83;;;11.60;1.00;;;;;;5072224;28;20228;-78
2021/03/27 10:55:16;;;;;;;5.27;4.43;;;11.90;1.00;;;;;;5045634;28;20887;-78
2021/03/27 10:58:04;;;;;;;3.83;3.50;;;13.60;1.00;;;;;;5057679;28;20500;-77
2021/03/27 11:00:38;;;;;;;4.73;4.20;;;14.90;1.00;;;;;;5057622;28;20487;-77
2021/03/27 11:03:41;;;;;;;4.67;4.27;;;14.30;1.00;;;;;;5070699;28;20439;-77
2021/03/27 11:06:19;;;;;;;6.03;3.10;;;13.00;1.00;;;;;;5065700;28;20436;-79
2021/03/27 11:09:28;;;;;;;3.57;2.80;;;10.90;1.00;;;;;;5079143;28;20472;-78
2021/03/27 11:12:13;;;;;;;3.53;2.70;;;9.60;1.00;;;;;;5064444;28;20463;-74
2021/03/27 11:15:27;;;;;;;4.25;2.80;;;8.80;1.00;;;;;;5084743;28;20555;-75
2021/03/27 11:18:10;;;;;;;4.75;3.25;;;8.40;1.00;;;;;;5083723;28;20236;-76
2021/03/27 11:20:59;;;;;;;3.63;2.30;;;8.50;1.00;;;;;;5071168;28;20271;-77
2021/03/27 11:23:46;;;;;;;6.60;3.20;;;8.90;1.00;;;;;;5082832;28;20232;-75
2021/03/27 11:26:55;;;;;;;4.83;2.80;;;9.80;1.00;;;;;;5063093;28;20243;-78
2021/03/27 11:29:28;;;;;;;4.10;3.43;;;12.40;1.00;;;;;;5071252;28;20488;-75
2021/03/27 11:32:10;;;;;;;3.43;2.70;;;14.90;1.00;;;;;;5056032;28;20415;-76
2021/03/27 11:34:42;;;;;;;3.90;3.00;;;17.00;1.00;;;;;;5078271;28;20457;-75
2021/03/27 11:37:33;;;;;;;3.73;3.07;;;18.50;1.00;;;;;;5064263;28;20436;-78
2021/03/27 11:40:05;;;;;;;3.53;3.23;;;19.20;1.00;;;;;;5077854;28;20423;-78
2021/03/27 11:42:40;;;;;;;3.10;2.90;;;20.20;1.00;;;;;;5057458;28;21026;-76
2021/03/27 11:45:12;;;;;;;4.40;3.30;;;21.30;1.00;;;;;;5066652;28;20469;-75
2021/03/27 11:47:55;;;;;;;4.00;3.40;;;21.20;1.00;;;;;;5053950;28;20454;-78
2021/03/27 11:50:51;;;;;;;3.53;3.20;;;21.80;1.00;;;;;;5055643;28;20533;-77
2021/03/27 11:53:42;;;;;;;4.93;3.37;;;22.00;1.00;;;;;;5045618;28;20569;-79
2021/03/27 11:56:14;;;;;;;5.10;3.17;;;20.70;1.00;;;;;;5059062;28;20798;-85
2021/03/27 12:01:44;;;;;;;4.77;3.13;;;21.10;1.00;;;;;;5075879;28;20444;-86
2021/03/27 12:04:22;;;;;;;4.30;3.13;;;22.00;1.00;;;;;;5057762;28;20417;-73
2021/03/27 12:07:01;;;;;;;4.10;3.10;;;22.20;1.00;;;;;;5057799;28;20464;-77
2021/03/27 12:09:43;;;;;;;3.67;3.10;;;20.80;1.00;;;;;;5036623;28;20447;-77
2021/03/27 12:12:20;;;;;;;4.50;3.07;;;19.70;1.00;;;;;;5056345;28;20450;-77
2021/03/27 12:14:54;;;;;;;3.70;3.37;;;18.20;1.00;;;;;;5046905;28;20446;-74
2021/03/27 12:17:55;;;;;;;3.67;3.27;;;16.90;1.00;;;;;;5059329;28;20477;-76
2021/03/27 12:20:34;;;;;;;10.00;4.97;;;18.50;1.00;;;;;;5056014;28;20867;-73
2021/03/27 12:23:07;;;;;;;4.43;3.63;;;20.60;1.00;;;;;;5033221;28;20569;-74
2021/03/27 12:25:48;;;;;;;5.50;3.30;;;21.90;1.00;;;;;;5049366;28;20457;-74
2021/03/27 12:28:25;;;;;;;4.90;3.73;;;22.70;1.00;;;;;;5038991;28;20446;-73
2021/03/27 12:30:56;;;;;;;3.80;3.50;;;23.10;1.00;;;;;;5048793;28;20474;-74
2021/03/27 12:33:38;;;;;;;4.63;4.20;;;23.80;1.00;;;;;;5033018;28;20884;-74
2021/03/27 12:36:10;;;;;;;4.00;3.47;;;23.70;1.00;;;;;;5053694;28;20442;-72
2021/03/27 12:39:02;;;;;;;5.27;3.47;;;23.30;1.00;;;;;;5032414;28;20476;-75
2021/03/27 12:41:35;;;;;;;3.50;3.20;;;21.50;1.00;;;;;;5045633;28;20529;-74
2021/03/27 12:44:04;;;;;;;6.50;4.07;;;20.30;1.00;;;;;;5031661;28;21044;-76
2021/03/27 12:46:43;;;;;;;4.60;3.50;;;21.50;1.00;;;;;;5045153;28;20529;-75
2021/03/27 12:49:53;;;;;;;4.47;3.40;;;21.10;1.00;;;;;;5038709;28;20943;-75
2021/03/27 12:52:32;;;;;;;2.97;2.30;;;19.90;1.00;;;;;;5054807;28;20486;-76
2021/03/27 12:55:06;;;;;;;6.20;3.20;;;19.00;1.00;;;;;;5030683;28;20468;-73
2021/03/27 12:57:49;;;;;;;4.90;3.40;;;19.10;1.00;;;;;;5046245;28;21620;-76
2021/03/27 13:00:39;;;;;;;4.47;4.07;;;18.50;1.00;;;;;;5034226;28;20462;-75
2021/03/27 13:03:27;;;;;;;6.93;3.03;;;17.30;1.00;;;;;;5049825;28;20573;-73
2021/03/27 13:06:19;;;;;;;4.83;2.90;;;16.40;1.00;;;;;;5046866;28;20491;-78
2021/03/27 13:08:58;;;;;;;4.20;3.50;;;15.10;1.00;;;;;;5055307;28;21695;-78
2021/03/27 13:11:28;;;;;;;3.57;2.60;;;13.60;1.00;;;;;;5043875;28;20492;-78
2021/03/27 13:14:28;;;;;;;3.42;2.88;;;11.80;1.00;;;;;;5073476;28;20487;-77
2021/03/27 13:16:58;;;;;;;3.03;2.30;;;10.60;1.00;;;;;;5048821;28;20222;-78
2021/03/27 13:19:36;;;;;;;3.13;2.25;;;9.70;1.00;;;;;;5056329;28;21769;-79
2021/03/27 13:22:12;;;;;;;2.38;2.17;;;9.20;1.00;;;;;;5046664;28;21453;-77
2021/03/27 13:25:10;;;;;;;3.10;2.00;;;8.90;1.00;;;;;;5061149;28;20236;-79
2021/03/27 13:27:43;;;;;;;2.10;1.90;;;8.70;1.00;;;;;;5056325;28;20225;-77
2021/03/27 13:30:28;;;;;;;2.67;2.05;;;8.60;1.00;;;;;;5068918;28;20217;-78
2021/03/27 13:33:11;;;;;;;4.95;2.17;;;8.60;1.00;;;;;;5061434;28;20269;-77
2021/03/27 13:36:06;;;;;;;3.60;2.50;;;8.80;1.00;;;;;;5059138;28;20223;-78
2021/03/27 13:38:39;;;;;;;2.95;2.33;;;9.60;1.00;;;;;;5056496;28;21071;-78
2021/03/27 13:41:14;;;;;;;2.90;2.65;;;9.90;1.00;;;;;;5042991;28;20226;-77
2021/03/27 13:43:49;;;;;;;3.10;1.92;;;9.80;1.00;;;;;;5058449;28;20228;-79
2021/03/27 13:46:21;;;;;;;2.88;2.15;;;9.50;1.00;;;;;;5050330;28;20267;-77
2021/03/27 13:48:53;;;;;;;2.70;2.10;;;9.30;1.00;;;;;;5060252;28;20229;-79
2021/03/27 13:51:29;;;;;;;7.13;2.70;;;9.10;1.00;;;;;;5058557;28;20261;-77
2021/03/27 13:54:09;;;;;;;3.22;2.20;;;9.10;1.00;;;;;;5080671;28;20228;-77
2021/03/27 13:56:41;;;;;;;4.45;2.05;;;9.00;1.00;;;;;;5055200;28;20252;-78
2021/03/27 13:59:26;;;;;;;1.60;1.40;;;9.10;1.00;;;;;;5069133;28;20236;-77
2021/03/27 14:02:18;;;;;;;3.15;2.50;;;9.10;1.00;;;;;;5055399;28;20239;-78
2021/03/27 14:04:49;;;;;;;2.90;1.40;;;9.00;1.00;;;;;;5079573;28;20225;-77
2021/03/27 14:07:29;;;;;;;1.90;1.50;;;8.80;1.00;;;;;;5044604;28;20226;-76
2021/03/27 14:09:59;;;;;;;2.30;1.50;;;8.80;1.00;;;;;;5072282;28;20934;-77
2021/03/27 14:12:33;;;;;;;3.53;1.10;;;8.60;1.00;;;;;;5039902;28;20283;-77
2021/03/27 14:15:15;;;;;;;1.65;1.33;;;8.50;1.00;;;;;;5069585;28;20209;-78
2021/03/27 14:18:00;;;;;;;6.47;1.40;;;8.40;1.00;;;;;;5058366;28;20228;-77
2021/03/27 14:20:43;;;;;;;2.50;1.38;;;8.40;1.00;;;;;;5084977;28;20224;-76